METAR Reports for Maryland

 

KGAI - Gaithersburg, Maryland, USA
Distance from station: NNE 28mi, 44km
Updated: Sat, 18-Nov-2017 5:56pm EST
Partly cloudy
Partly cloudy
 Wind from SSE
Wind: SSE 13 mph , 20 km/h, Gust: 21 mph , 33 km/h
Temperature: 54°F , 12°C
Dew Point: 41°F , 5°C
Humidity: 63%
Barometer: 29.56 inHg , 1001 hPa
Clouds: Partly cloudy
Visibility: 10 miles , 16 km
Cloud details: Few Clouds 10000 ft
Partly cloudy 12000 ft
2017/11/18 22:56 KGAI 182256Z AUTO 16011G18KT 10SM FEW100 SCT120 12/05 A2956 RMK AO2 SLP041 T01220050
KCGS - College Park, Maryland, USA
Distance from station: ENE 29mi, 47km
Updated: Sat, 18-Nov-2017 6:06pm EST
Partly cloudy
Partly cloudy
 Wind from S
Wind: S 6 mph , 9 km/h
Temperature: 57°F , 14°C
Dew Point: 39°F , 4°C
Humidity: 51%
Barometer: 29.58 inHg , 1001.7 hPa
Clouds: Partly cloudy
Visibility: 10 miles , 16 km
Cloud details: Partly cloudy 11000 ft
2017/11/18 23:06 KCGS 182306Z AUTO 18005KT 10SM SCT110 14/04 A2958 RMK AO1 T01350041
KADW - Andrews Afb, Maryland, USA
Distance from station: E 30mi, 48km
Updated: Sat, 18-Nov-2017 5:56pm EST
Clear
Clear
 Wind from S
Wind: S 15 mph , 24 km/h
Temperature: 55°F , 13°C
Dew Point: 39°F , 4°C
Humidity: 55%
Barometer: 29.58 inHg , 1001.7 hPa
Clouds: Clear
Visibility: 10 miles , 16 km
2017/11/18 22:56 KADW 182256Z AUTO 17013KT 10SM CLR 13/04 A2958 RMK AO2 SLP024 T01330044 $
 
KFME - Fort Meade, Maryland, USA
Distance from station: ENE 40mi, 64km
Updated: Sat, 18-Nov-2017 6:06pm EST
Clear
Clear
 Wind from S
Wind: S 7 mph , 11 km/h
Temperature: 54°F , 12°C
Dew Point: 39°F , 4°C
Humidity: 58%
Barometer: 29.59 inHg , 1002 hPa
Clouds: Clear
Visibility: 10 miles , 16 km
2017/11/18 23:06 KFME 182306Z AUTO 18006KT 10SM CLR 12/04 A2959 RMK AO1
KFDK - Frederick, Maryland, USA
Distance from station: N 41mi, 67km
Updated: Sat, 18-Nov-2017 5:47pm EST
Mist, Clear
Mist, Clear
 Wind from calm
Wind: Calm
Temperature: 43°F , 6°C
Dew Point: 43°F , 6°C
Humidity: 100%
Barometer: 29.59 inHg , 1002 hPa
Summary: Mist
Clouds: Clear
Visibility: 5 miles , 8 km
2017/11/18 22:47 KFDK 182247Z 00000KT 5SM BR SKC 06/06 A2959
KBWI - Balto/Wash Intl, Maryland, USA
Distance from station: ENE 46mi, 75km
Updated: Sat, 18-Nov-2017 5:54pm EST
Overcast
Overcast
 Wind from S
Wind: S 6 mph , 9 km/h
Temperature: 55°F , 13°C
Dew Point: 41°F , 5°C
Humidity: 59%
Barometer: 29.57 inHg , 1001.4 hPa
Clouds: Overcast
Visibility: 10 miles , 16 km
Cloud details: Partly cloudy 10000 ft
Overcast 16000 ft
2017/11/18 22:54 KBWI 182254Z 17005KT 10SM SCT100 OVC160 13/05 A2957 RMK AO2 SLP014 T01280050
 
KNAK - Annapolis/Naval, Maryland, USA
Distance from station: ENE 52mi, 83km
Updated: Fri, 17-Nov-2017 8:54pm EST
NOT Current
Clear
Clear
 Wind from calm
Wind: Calm
Temperature: 41°F , 5°C
Dew Point: 37°F , 3°C
Humidity: 87%
Barometer: 30.13 inHg , 1020.3 hPa
Clouds: Clear
Visibility: 10 miles , 16 km
2017/11/18 01:54 KNAK 180154Z AUTO 00000KT 10SM CLR 05/03 A3013 RMK AO2 SLP203 T00500028
KDMH - Baltimore/Dwntwn, Maryland, USA
Distance from station: NE 54mi, 87km
Updated: Sat, 18-Nov-2017 5:54pm EST

 
Temperature: 57°F , 14°C
Dew Point: 39°F , 4°C
Humidity: 51%
Barometer: 29.58 inHg , 1001.7 hPa
2017/11/18 22:54 KDMH 182254Z AUTO 14/04 A2958 RMK AO1 SLP016 T01390044
KRSP - Nsf Thurmont, Maryland, USA
Distance from station: N 58mi, 93km
Updated: Sat, 18-Nov-2017 5:54pm EST
Mostly cloudy
Mostly cloudy
 Wind from SSW
Wind: SSW 13 mph , 20 km/h, Gust: 24 mph , 39 km/h
Temperature: 46°F , 8°C
Wind Chill: 40°F , 4°C
Dew Point: 39°F , 4°C
Humidity: 76%
Barometer: 29.52 inHg , 999.7 hPa
Clouds: Mostly cloudy
Visibility: 10 miles , 16 km
Cloud details: Partly cloudy 5500 ft
Mostly cloudy 7000 ft
Mostly cloudy 8000 ft
2017/11/18 22:54 KRSP 182254Z AUTO 20011G21KT 180V240 10SM SCT055 BKN070 BKN080 08/04 A2952 RMK AO2 SLP008 T00830044 $
 
K2W6 - St Marys (duke), Maryland, USA
Distance from station: SE 58mi, 94km
Updated: Sat, 18-Nov-2017 6:26pm EST
Clear
Clear
 Wind from SSW
Wind: SSW 9 mph , 15 km/h
Temperature: 59°F , 15°C
Dew Point: 43°F , 6°C
Humidity: 55%
Barometer: 29.65 inHg , 1004.1 hPa
Clouds: Clear
Visibility: 10 miles , 16 km
2017/11/18 23:26 K2W6 182326Z AUTO 20008KT 10SM CLR 15/06 A2965 RMK AO1
KDMW - Carroll Cnty, Maryland, USA
Distance from station: NNE 58mi, 94km
Updated: Sat, 18-Nov-2017 6:25pm EST
Partly cloudy
Partly cloudy
 Wind from SSE
Wind: SSE 9 mph , 15 km/h
Clouds: Partly cloudy
Visibility: 10 miles , 16 km
Cloud details: Partly cloudy 8000 ft
Partly cloudy 9000 ft
2017/11/18 23:25 KDMW 182325Z AUTO 16008KT 10SM SCT080 SCT090 120 11/07 A2952 RMK AO2
KW29 - Stevensville, Maryland, USA
Distance from station: ENE 60mi, 96km
Updated: Sat, 18-Nov-2017 6:20pm EST
Partly cloudy
Partly cloudy
 Wind from S
Wind: S 12 mph , 19 km/h, Gust: 21 mph , 33 km/h
Temperature: 55°F , 13°C
Dew Point: 43°F , 6°C
Humidity: 63%
Barometer: 29.59 inHg , 1002 hPa
Clouds: Partly cloudy
Visibility: 10 miles , 16 km
Cloud details: Partly cloudy 11000 ft
2017/11/18 23:20 KW29 182320Z AUTO 17010G18KT 10SM SCT110 13/06 A2959 RMK AO2
 
KHGR - Hagerstown, Maryland, USA
Distance from station: NNW 63mi, 102km
Updated: Sat, 18-Nov-2017 6:08pm EST
Light rain, Mist, Mostly cloudy
Light rain, Mist, Mostly cloudy
 Wind from N
Wind: N 3 mph , 6 km/h
Temperature: 39°F , 4°C
Dew Point: 39°F , 4°C
Humidity: 100%
Barometer: 29.50 inHg , 999 hPa
Summary: Light rain, Mist
Clouds: Mostly cloudy
Visibility: 4 miles , 6 km
Cloud details: Mostly cloudy 10000 ft
2017/11/18 23:08 KHGR 182308Z 35003KT 4SM -RA BR BKN100 04/04 A2950 RMK AO2 RAB2255 P0000 T00440039
KMTN - Baltimore/Martin, Maryland, USA
Distance from station: ENE 64mi, 103km
Updated: Sat, 18-Nov-2017 5:45pm EST
Overcast
Overcast
 Wind from SSE
Wind: SSE 12 mph , 19 km/h
Temperature: 54°F , 12°C
Dew Point: 48°F , 9°C
Humidity: 82%
Barometer: 29.61 inHg , 1002.7 hPa
Clouds: Overcast
Visibility: 7 miles , 11 km
Cloud details: Mostly cloudy 10000 ft
Overcast 12000 ft
2017/11/18 22:45 KMTN 182245Z 15010KT 7SM BKN100 OVC120 12/09 A2961
KNHK - Patuxent River, Maryland, USA
Distance from station: SE 67mi, 108km
Updated: Sat, 18-Nov-2017 5:52pm EST
Overcast
Overcast
 Wind from S
Wind: S 10 mph , 17 km/h
Temperature: 57°F , 14°C
Dew Point: 45°F , 7°C
Humidity: 63%
Barometer: 29.64 inHg , 1003.7 hPa
Clouds: Overcast
Visibility: 10 miles , 16 km
Cloud details: Mostly cloudy 16000 ft
Mostly cloudy 21000 ft
Overcast 28000 ft
2017/11/18 22:52 KNHK 182252Z 19009KT 10SM BKN160 BKN210 OVC280 14/07 A2964 RMK AO2 SLP036 T01440067
 
KNUI - Webster Naval, Maryland, USA
Distance from station: SE 71mi, 114km
Updated: Sat, 18-Nov-2017 5:53pm EST
Clear
Clear
 Wind from S
Wind: S 12 mph , 19 km/h
Temperature: 59°F , 15°C
Dew Point: 45°F , 7°C
Humidity: 59%
Barometer: 29.65 inHg , 1004.1 hPa
Clouds: Clear
Visibility: 10 miles , 16 km
2017/11/18 22:53 KNUI 182253Z AUTO 19010KT 10SM CLR 15/07 A2965 RMK AO2 SLP040 T01500072
KESN - Easton/Newnam, Maryland, USA
Distance from station: E 73mi, 117km
Updated: Sat, 18-Nov-2017 5:45pm EST
Partly cloudy
Partly cloudy
 Wind from SSW
Wind: SSW 13 mph , 20 km/h, Gust: 18 mph , 30 km/h
Temperature: 57°F , 14°C
Dew Point: 41°F , 5°C
Humidity: 55%
Barometer: 29.67 inHg , 1004.7 hPa
Clouds: Partly cloudy
Visibility: 10 miles , 16 km
Cloud details: Partly cloudy 14000 ft
2017/11/18 22:45 KESN 182245Z 20011G16KT 10SM SCT140 14/05 A2967
KCGE - Cambridge-Dorch, Maryland, USA
Distance from station: ESE 77mi, 124km
Updated: Sat, 18-Nov-2017 6:25pm EST
Partly cloudy
Partly cloudy
 Wind from S
Wind: S 12 mph , 19 km/h, Gust: 18 mph , 30 km/h
Temperature: 57°F , 14°C
Dew Point: 46°F , 8°C
Humidity: 67%
Barometer: 29.64 inHg , 1003.7 hPa
Clouds: Partly cloudy
Visibility: 10 miles , 16 km
Cloud details: Few Clouds 5500 ft
Few Clouds 7000 ft
Partly cloudy 12000 ft
2017/11/18 23:25 KCGE 182325Z AUTO 18010G16KT 140V200 10SM FEW055 FEW070 SCT120 14/08 A2964 RMK A01
 
KAPG - Aberdeen/Phillip, Maryland, USA
Distance from station: NE 81mi, 130km
Updated: Sat, 18-Nov-2017 5:58pm EST
Mostly cloudy
Mostly cloudy
 Wind from S
Wind: S 8 mph , 13 km/h
Temperature: 54°F , 12°C
Dew Point: 41°F , 5°C
Humidity: 63%
Barometer: 29.60 inHg , 1002.4 hPa
Clouds: Mostly cloudy
Visibility: 10 miles , 16 km
Cloud details: Mostly cloudy 9500 ft
2017/11/18 22:58 KAPG 182258Z AUTO 19007KT 10SM BKN095 12/05 A2960 RMK AO2 SLP027 P0000 T01200052 $
KCBE - Cumberland Reg, Maryland, USA
Distance from station: NW 91mi, 146km
Updated: Sat, 18-Nov-2017 6:26pm EST
Partly cloudy
Partly cloudy
 Wind from calm
Wind: Calm
Temperature: 37°F , 3°C
Dew Point: 37°F , 3°C
Humidity: 100%
Barometer: 29.54 inHg , 1000.3 hPa
Clouds: Partly cloudy
Visibility: 4 miles , 6 km
Cloud details: Partly cloudy 100 ft
2017/11/18 23:26 KCBE 182326Z AUTO 00000KT 4SM SCT001 03/03 A2954 RMK AO1
KSBY - Salisbury, Maryland, USA
Distance from station: ESE 109mi, 175km
Updated: Sat, 18-Nov-2017 5:54pm EST
Clear
Clear
 Wind from SSW
Wind: SSW 12 mph , 19 km/h
Temperature: 57°F , 14°C
Dew Point: 48°F , 9°C
Humidity: 72%
Barometer: 29.67 inHg , 1004.7 hPa
Clouds: Clear
Visibility: 10 miles , 16 km
2017/11/18 22:54 KSBY 182254Z 20010KT 10SM CLR 14/09 A2967 RMK AO2 SLP050 T01390089
 
K2G4 - Garrett Co, Maryland, USA
Distance from station: WNW 115mi, 186km
Updated: Sat, 18-Nov-2017 6:30pm EST
Partly cloudy
Partly cloudy
 Wind from S
Wind: S 12 mph , 19 km/h
Temperature: 50°F , 10°C
Wind Chill: 45°F , 7°C
Dew Point: 45°F , 7°C
Humidity: 82%
Barometer: 29.37 inHg , 994.6 hPa
Clouds: Partly cloudy
Visibility: 10 miles , 16 km
Cloud details: Partly cloudy 3600 ft
2017/11/18 23:30 K2G4 182330Z AUTO 18010KT 10SM SCT036 10/07 A2937 RMK AO1
KOXB - Ocean City, Maryland, USA
Distance from station: ESE 129mi, 208km
Updated: Sat, 18-Nov-2017 5:53pm EST
Clear
Clear
 Wind from SW
Wind: SW 15 mph , 24 km/h, Gust: 25 mph , 41 km/h
Temperature: 57°F , 14°C
Dew Point: 52°F , 11°C
Humidity: 82%
Barometer: 29.69 inHg , 1005.4 hPa
Clouds: Clear
Visibility: 10 miles , 16 km
2017/11/18 22:53 KOXB 182253Z AUTO 22013G22KT 10SM CLR 14/11 A2969 RMK AO2 SLP054 T01390106